createdAt,value
2019-04-10T00:02:02.098Z,7.30
2019-04-10T00:04:51.526Z,7.20
2019-04-10T00:07:39.645Z,7.30
2019-04-10T00:10:28.023Z,7.20
2019-04-10T00:13:16.420Z,7.20
2019-04-10T00:16:05.609Z,7.10
2019-04-10T00:18:54.643Z,7.10
2019-04-10T00:21:42.366Z,7.10
2019-04-10T00:24:30.891Z,7.00
2019-04-10T00:27:19.326Z,7.00
2019-04-10T00:30:08.996Z,7.00
2019-04-10T00:32:57.108Z,7.00
2019-04-10T00:35:45.693Z,7.00
2019-04-10T00:38:34.069Z,6.90
2019-04-10T00:41:22.244Z,6.90
2019-04-10T00:44:11.171Z,6.80
2019-04-10T00:46:59.053Z,6.70
2019-04-10T00:49:48.231Z,6.70
2019-04-10T00:52:36.728Z,6.60
2019-04-10T00:55:25.626Z,6.60
2019-04-10T00:58:14.627Z,6.50
2019-04-10T01:01:03.442Z,6.50
2019-04-10T01:03:51.482Z,6.50
2019-04-10T01:06:40.022Z,6.40
2019-04-10T01:09:29.078Z,6.40
2019-04-10T01:12:17.351Z,6.30
2019-04-10T01:15:07.032Z,6.30
2019-04-10T01:17:55.547Z,6.30
2019-04-10T01:20:43.878Z,6.20
2019-04-10T01:23:33.106Z,6.20
2019-04-10T01:26:21.215Z,6.20
2019-04-10T01:29:11.285Z,6.10
2019-04-10T01:32:00.007Z,6.10
2019-04-10T01:34:48.486Z,6.00
2019-04-10T01:37:48.726Z,6.00
2019-04-10T01:40:26.761Z,6.00
2019-04-10T01:43:18.317Z,5.90
2019-04-10T01:46:04.296Z,5.80
2019-04-10T01:48:53.391Z,5.80
2019-04-10T01:51:41.536Z,5.80
2019-04-10T01:54:29.447Z,5.70
2019-04-10T01:57:18.059Z,5.70
2019-04-10T02:00:06.856Z,5.70
2019-04-10T02:02:55.836Z,5.70
2019-04-10T02:05:44.990Z,5.60
2019-04-10T02:08:34.108Z,5.60
2019-04-10T02:11:22.475Z,5.60
2019-04-10T02:14:10.749Z,5.50
2019-04-10T02:16:59.040Z,5.50
2019-04-10T02:19:48.213Z,5.50
2019-04-10T02:22:36.789Z,5.40
2019-04-10T02:25:24.767Z,5.30
2019-04-10T02:28:13.078Z,5.30
2019-04-10T02:31:02.832Z,5.30
2019-04-10T02:33:51.832Z,5.30
2019-04-10T02:36:39.985Z,5.20
2019-04-10T02:39:37.457Z,5.20
2019-04-10T02:42:18.652Z,5.20
2019-04-10T02:45:08.453Z,5.20
2019-04-10T02:47:59.211Z,5.10
2019-04-10T02:50:47.252Z,5.10
2019-04-10T02:53:35.347Z,5.10
2019-04-10T02:56:25.318Z,5.00
2019-04-10T02:59:15.318Z,5.00
2019-04-10T03:02:04.323Z,4.90
2019-04-10T03:04:53.332Z,4.90
2019-04-10T03:07:42.309Z,5.00
2019-04-10T03:10:40.535Z,4.90
2019-04-10T03:13:21.915Z,4.90
2019-04-10T03:16:11.643Z,4.80
2019-04-10T03:18:59.906Z,4.70
2019-04-10T03:21:48.623Z,4.70
2019-04-10T03:24:38.143Z,4.70
2019-04-10T03:27:26.677Z,4.70
2019-04-10T03:30:15.586Z,4.50
2019-04-10T03:33:19.874Z,4.50
2019-04-10T03:36:05.279Z,4.50
2019-04-10T03:39:00.087Z,4.40
2019-04-10T03:41:43.989Z,4.40
2019-04-10T03:44:32.591Z,4.40
2019-04-10T03:47:21.088Z,4.40
2019-04-10T03:50:09.327Z,4.30
2019-04-10T03:52:57.923Z,4.20
2019-04-10T03:55:47.331Z,4.20
2019-04-10T03:58:35.715Z,4.10
2019-04-10T04:01:24.783Z,4.10
2019-04-10T04:04:13.387Z,4.10
2019-04-10T04:07:01.592Z,4.00
2019-04-10T04:09:49.555Z,4.00
2019-04-10T04:12:39.078Z,4.00
2019-04-10T04:15:28.189Z,4.00
2019-04-10T04:18:17.202Z,4.00
2019-04-10T04:21:05.715Z,4.00
2019-04-10T04:23:55.031Z,3.90
2019-04-10T04:26:43.622Z,3.90
2019-04-10T04:29:32.493Z,3.80
2019-04-10T04:32:21.770Z,3.80
2019-04-10T04:35:11.120Z,3.80
2019-04-10T04:38:00.247Z,3.70
2019-04-10T04:40:48.774Z,3.60
2019-04-10T04:43:37.159Z,3.70
2019-04-10T04:46:26.068Z,3.70
2019-04-10T04:49:15.722Z,3.70
2019-04-10T04:52:04.027Z,3.60
2019-04-10T04:54:53.278Z,3.60
2019-04-10T04:57:42.267Z,3.60
2019-04-10T05:00:31.948Z,3.50
2019-04-10T05:03:20.786Z,3.60
2019-04-10T05:06:09.216Z,3.40
2019-04-10T05:08:57.392Z,3.40
2019-04-10T05:11:46.745Z,3.50
2019-04-10T05:14:35.704Z,3.50
2019-04-10T05:17:24.532Z,3.50
2019-04-10T05:20:12.496Z,3.60
2019-04-10T05:23:00.270Z,3.60
2019-04-10T05:25:49.782Z,3.60
2019-04-10T05:28:38.168Z,3.70
2019-04-10T05:31:27.661Z,3.80
2019-04-10T05:34:16.141Z,3.80
2019-04-10T05:37:05.284Z,3.70
2019-04-10T05:39:54.203Z,3.90
2019-04-10T05:42:44.932Z,3.90
2019-04-10T05:45:33.890Z,3.90
2019-04-10T05:48:24.010Z,3.90
2019-04-10T05:51:12.565Z,4.00
2019-04-10T05:54:00.863Z,4.20
2019-04-10T05:56:50.407Z,4.40
2019-04-10T05:59:38.718Z,4.50
2019-04-10T06:02:27.140Z,4.50
2019-04-10T06:05:16.221Z,4.80
2019-04-10T06:08:05.691Z,5.30
2019-04-10T06:10:54.084Z,5.40
2019-04-10T06:13:42.923Z,5.20
2019-04-10T06:16:32.257Z,5.40
2019-04-10T06:19:20.236Z,5.50
2019-04-10T06:22:09.774Z,5.70
2019-04-10T06:24:58.587Z,6.00
2019-04-10T06:27:48.406Z,6.50
2019-04-10T06:30:36.955Z,7.10
2019-04-10T06:33:25.871Z,7.60
2019-04-10T06:36:15.315Z,7.60
2019-04-10T06:39:04.644Z,7.10
2019-04-10T06:41:52.981Z,7.00
2019-04-10T06:44:41.798Z,6.90
2019-04-10T06:47:30.712Z,6.80
2019-04-10T06:50:19.057Z,6.20
2019-04-10T06:53:08.442Z,5.80
2019-04-10T06:55:56.714Z,5.60
2019-04-10T06:58:45.015Z,5.70
2019-04-10T07:01:40.514Z,5.80
2019-04-10T07:04:25.093Z,6.20
2019-04-10T07:07:15.159Z,6.50
2019-04-10T07:10:02.334Z,7.00
2019-04-10T07:12:51.305Z,7.90
2019-04-10T07:15:41.370Z,8.60
2019-04-10T07:18:28.807Z,9.10
2019-04-10T07:21:16.895Z,9.30
2019-04-10T07:24:06.754Z,9.30
2019-04-10T07:26:55.198Z,9.20
2019-04-10T07:29:44.524Z,8.60
2019-04-10T07:32:33.960Z,9.30
2019-04-10T07:35:22.171Z,9.70
2019-04-10T07:38:10.159Z,9.30
2019-04-10T07:40:58.857Z,8.90
2019-04-10T07:43:52.483Z,8.80
2019-04-10T07:46:36.622Z,9.40
2019-04-10T07:49:27.460Z,10.10
2019-04-10T07:52:13.880Z,10.10
2019-04-10T07:55:02.527Z,9.30
2019-04-10T07:57:51.671Z,8.80
2019-04-10T08:00:40.740Z,8.60
2019-04-10T08:03:31.138Z,8.80
2019-04-10T08:06:19.916Z,8.70
2019-04-10T08:09:08.622Z,9.40
2019-04-10T08:11:57.175Z,10.30
2019-04-10T08:14:44.720Z,10.60
2019-04-10T08:17:34.541Z,11.00
2019-04-10T08:20:22.486Z,11.20
2019-04-10T08:23:12.210Z,11.80
2019-04-10T08:26:00.868Z,12.20
2019-04-10T08:28:49.708Z,12.40
2019-04-10T08:31:37.932Z,12.70
2019-04-10T08:34:26.098Z,13.40
2019-04-10T08:37:14.771Z,13.10
2019-04-10T08:40:03.126Z,12.60
2019-04-10T08:42:51.674Z,12.10
2019-04-10T08:45:46.717Z,12.00
2019-04-10T08:48:30.562Z,12.20
2019-04-10T08:51:19.688Z,12.80
2019-04-10T08:54:07.905Z,13.70
2019-04-10T08:56:56.798Z,13.70
2019-04-10T08:59:46.646Z,13.80
2019-04-10T09:02:34.486Z,14.90
2019-04-10T09:05:23.831Z,14.60
2019-04-10T09:08:12.819Z,14.70
2019-04-10T09:11:01.259Z,15.60
2019-04-10T09:13:49.219Z,16.00
2019-04-10T09:16:38.535Z,15.80
2019-04-10T09:19:27.721Z,15.60
2019-04-10T09:22:16.331Z,15.80
2019-04-10T09:25:04.044Z,15.50
2019-04-10T09:27:52.250Z,15.10
2019-04-10T09:30:40.928Z,14.40
2019-04-10T09:33:30.778Z,14.00
2019-04-10T09:36:19.726Z,14.00
2019-04-10T09:39:09.539Z,14.00
2019-04-10T09:41:58.749Z,14.00
2019-04-10T09:44:46.959Z,13.90
2019-04-10T09:47:34.859Z,14.20
2019-04-10T09:50:25.093Z,14.00
2019-04-10T09:53:14.968Z,13.90
2019-04-10T09:56:03.372Z,13.90
2019-04-10T09:58:51.875Z,13.90
2019-04-10T10:01:40.755Z,14.40
2019-04-10T10:04:29.211Z,15.40
2019-04-10T10:07:18.627Z,16.30
2019-04-10T10:10:08.584Z,15.80
2019-04-10T10:12:57.183Z,16.20
2019-04-10T10:15:45.260Z,15.80
2019-04-10T10:18:33.492Z,15.00
2019-04-10T10:21:21.580Z,14.90
2019-04-10T10:24:10.708Z,15.30
2019-04-10T10:26:59.686Z,15.40
2019-04-10T10:29:48.141Z,15.10
2019-04-10T10:32:37.167Z,15.20
2019-04-10T10:35:25.698Z,15.90
2019-04-10T10:38:14.800Z,16.00
2019-04-10T10:41:04.543Z,14.70
2019-04-10T10:43:52.999Z,14.50
2019-04-10T10:46:41.842Z,14.90
2019-04-10T10:49:30.657Z,16.60
2019-04-10T10:52:19.413Z,17.60
2019-04-10T10:55:08.059Z,18.40
2019-04-10T10:57:57.522Z,19.50
2019-04-10T11:00:45.490Z,19.60
2019-04-10T11:03:34.163Z,18.70
2019-04-10T11:06:22.666Z,17.90
2019-04-10T11:09:13.487Z,17.50
2019-04-10T11:12:03.220Z,17.20
2019-04-10T11:14:52.296Z,16.50
2019-04-10T11:17:40.495Z,16.60
2019-04-10T11:20:29.823Z,16.40
2019-04-10T11:23:18.181Z,16.20
2019-04-10T11:26:06.707Z,16.20
2019-04-10T11:28:55.791Z,16.70
2019-04-10T11:31:45.791Z,18.50
2019-04-10T11:34:35.638Z,18.50
2019-04-10T11:37:36.523Z,18.70
2019-04-10T11:40:17.595Z,17.90
2019-04-10T11:43:05.724Z,19.00
2019-04-10T11:45:58.114Z,19.80
2019-04-10T11:48:45.482Z,21.10
2019-04-10T11:51:34.246Z,21.70
2019-04-10T11:54:34.264Z,22.10
2019-04-10T11:57:34.809Z,21.40
2019-04-10T12:00:46.696Z,22.20
2019-04-10T12:03:27.366Z,20.90
2019-04-10T12:06:15.722Z,20.60
2019-04-10T12:11:59.394Z,21.30
2019-04-10T12:14:47.891Z,21.50
2019-04-10T12:17:36.126Z,21.20
2019-04-10T12:20:24.962Z,21.30
2019-04-10T12:23:13.523Z,21.50
2019-04-10T12:26:01.335Z,21.00
2019-04-10T12:28:49.916Z,21.00
2019-04-10T12:31:38.462Z,21.40
2019-04-10T12:34:26.892Z,21.80
2019-04-10T12:37:15.747Z,21.20
2019-04-10T12:40:05.413Z,20.90
2019-04-10T12:42:54.611Z,21.50
2019-04-10T12:45:43.004Z,21.80
2019-04-10T12:48:31.537Z,21.90
2019-04-10T12:51:21.471Z,21.90
2019-04-10T12:54:09.973Z,21.20
2019-04-10T12:56:58.813Z,20.80
2019-04-10T12:59:47.820Z,21.00
2019-04-10T13:02:36.537Z,22.20
2019-04-10T13:05:25.158Z,21.40
2019-04-10T13:08:21.169Z,21.20
2019-04-10T13:11:02.806Z,21.70
2019-04-10T13:13:51.351Z,21.40
2019-04-10T13:16:41.305Z,22.10
2019-04-10T13:19:31.238Z,21.40
2019-04-10T13:22:20.053Z,19.90
2019-04-10T13:25:08.648Z,20.00
2019-04-10T13:27:56.524Z,20.50
2019-04-10T13:30:48.908Z,21.10
2019-04-10T13:33:33.904Z,22.30
2019-04-10T13:36:21.792Z,22.50
2019-04-10T13:39:13.358Z,21.90
2019-04-10T13:42:01.588Z,21.80
2019-04-10T13:44:49.515Z,21.00
2019-04-10T13:47:38.587Z,20.30
2019-04-10T13:50:26.467Z,21.20
2019-04-10T13:53:15.491Z,21.80
2019-04-10T13:56:04.491Z,21.60
2019-04-10T13:58:53.010Z,20.40
2019-04-10T14:01:41.792Z,20.90
2019-04-10T14:04:31.304Z,21.20
2019-04-10T14:07:20.251Z,21.40
2019-04-10T14:10:10.540Z,20.20
2019-04-10T14:12:59.718Z,19.20
2019-04-10T14:15:48.367Z,20.10
2019-04-10T14:18:37.074Z,20.40
2019-04-10T14:21:25.426Z,20.60
2019-04-10T14:24:13.795Z,20.20
2019-04-10T14:27:08.112Z,19.80
2019-04-10T14:29:56.662Z,19.80
2019-04-10T14:32:45.521Z,20.20
2019-04-10T14:35:34.057Z,19.60
2019-04-10T14:38:23.240Z,20.60
2019-04-10T14:41:11.615Z,20.90
2019-04-10T14:43:59.400Z,21.40
2019-04-10T14:46:47.090Z,21.40
2019-04-10T14:49:35.844Z,20.50
2019-04-10T14:52:25.363Z,19.90
2019-04-10T14:55:14.522Z,19.30
2019-04-10T14:58:03.455Z,19.00
2019-04-10T15:00:52.749Z,19.30
2019-04-10T15:03:40.671Z,18.50
2019-04-10T15:06:29.159Z,19.00
2019-04-10T15:09:25.661Z,19.00
2019-04-10T15:12:10.388Z,18.30
2019-04-10T15:14:59.523Z,17.80
2019-04-10T15:17:48.467Z,18.10
2019-04-10T15:20:37.584Z,18.70
2019-04-10T15:23:26.174Z,18.80
2019-04-10T15:26:14.235Z,18.80
2019-04-10T15:29:02.335Z,18.90
2019-04-10T15:31:50.934Z,18.60
2019-04-10T15:34:39.653Z,18.50
2019-04-10T15:37:28.973Z,18.40
2019-04-10T15:40:20.823Z,18.90
2019-04-10T15:43:08.363Z,19.10
2019-04-10T15:45:56.881Z,18.90
2019-04-10T15:48:46.064Z,19.10
2019-04-10T15:51:34.346Z,18.90
2019-04-10T15:54:23.577Z,18.20
2019-04-10T15:57:11.993Z,17.70
2019-04-10T16:00:00.919Z,17.10
2019-04-10T16:02:49.363Z,16.90
2019-04-10T16:05:37.762Z,17.00
2019-04-10T16:08:26.101Z,16.40
2019-04-10T16:11:34.694Z,15.50
2019-04-10T16:14:25.944Z,14.90
2019-04-10T16:17:46.315Z,14.20
2019-04-10T16:20:35.104Z,13.80
2019-04-10T16:23:31.381Z,13.50
2019-04-10T16:26:20.179Z,13.20
2019-04-10T16:29:09.622Z,13.10
2019-04-10T16:31:57.979Z,13.00
2019-04-10T16:34:47.113Z,12.80
2019-04-10T16:37:35.618Z,12.80
2019-04-10T16:40:24.216Z,12.50
2019-04-10T16:43:12.327Z,12.50
2019-04-10T16:46:02.857Z,12.30
2019-04-10T16:48:52.363Z,12.20
2019-04-10T16:51:41.024Z,12.20
2019-04-10T16:54:29.270Z,12.10
2019-04-10T16:57:18.470Z,12.00
2019-04-10T17:00:07.808Z,11.90
2019-04-10T17:02:56.555Z,11.90
2019-04-10T17:05:45.941Z,11.70
2019-04-10T17:08:34.537Z,11.60
2019-04-10T17:11:23.091Z,11.50
2019-04-10T17:14:13.009Z,11.40
2019-04-10T17:17:02.139Z,11.30
2019-04-10T17:19:55.357Z,11.20
2019-04-10T17:22:45.264Z,11.00
2019-04-10T17:25:30.479Z,11.00
2019-04-10T17:28:18.597Z,10.90
2019-04-10T17:31:09.140Z,10.80
2019-04-10T17:33:58.584Z,10.60
2019-04-10T17:36:47.704Z,10.50
2019-04-10T17:39:35.803Z,10.40
2019-04-10T17:42:24.173Z,10.40
2019-04-10T17:45:14.208Z,10.30
2019-04-10T17:48:03.297Z,10.30
2019-04-10T17:50:53.307Z,10.20
2019-04-10T17:53:42.026Z,10.10
2019-04-10T17:56:30.533Z,10.10
2019-04-10T17:59:18.371Z,10.00
2019-04-10T18:02:10.172Z,9.90
2019-04-10T18:04:58.658Z,9.90
2019-04-10T18:07:46.688Z,9.80
2019-04-10T18:10:44.723Z,9.80
2019-04-10T18:13:24.817Z,9.60
2019-04-10T18:16:12.694Z,9.60
2019-04-10T18:19:02.234Z,9.50
2019-04-10T18:21:50.378Z,9.40
2019-04-10T18:24:40.074Z,9.40
2019-04-10T18:27:28.891Z,9.30
2019-04-10T18:30:16.695Z,9.30
2019-04-10T18:33:06.602Z,9.20
2019-04-10T18:35:55.323Z,9.10
2019-04-10T18:38:44.228Z,9.10
2019-04-10T18:41:32.602Z,9.00
2019-04-10T18:44:21.284Z,8.90
2019-04-10T18:47:09.579Z,8.90
2019-04-10T18:49:58.045Z,8.90
2019-04-10T18:52:47.655Z,8.90
2019-04-10T18:55:36.437Z,8.80
2019-04-10T18:58:27.738Z,8.80
2019-04-10T19:01:39.061Z,8.70
2019-04-10T19:04:31.479Z,8.60
2019-04-10T19:07:20.817Z,8.60
2019-04-10T19:10:09.998Z,8.60
2019-04-10T19:12:59.505Z,8.50
2019-04-10T19:15:47.467Z,8.50
2019-04-10T19:18:36.094Z,8.40
2019-04-10T19:21:24.128Z,8.30
2019-04-10T19:24:12.314Z,8.30
2019-04-10T19:27:01.993Z,8.30
2019-04-10T19:29:50.777Z,8.20
2019-04-10T19:32:39.438Z,8.20
2019-04-10T19:35:28.592Z,8.10
2019-04-10T19:38:17.413Z,8.20
2019-04-10T19:41:06.077Z,8.10
2019-04-10T19:43:54.844Z,8.10
2019-04-10T19:46:43.913Z,8.00
2019-04-10T19:49:32.907Z,7.80
2019-04-10T19:52:22.373Z,7.90
2019-04-10T19:55:11.505Z,7.90
2019-04-10T19:57:59.671Z,7.80
2019-04-10T20:00:49.014Z,7.80
2019-04-10T20:03:38.188Z,7.70
2019-04-10T20:06:26.249Z,7.70
2019-04-10T20:09:14.529Z,7.60
2019-04-10T20:12:02.604Z,7.60
2019-04-10T20:14:51.323Z,7.60
2019-04-10T20:17:39.915Z,7.50
2019-04-10T20:20:29.069Z,7.50
2019-04-10T20:23:16.807Z,7.50
2019-04-10T20:26:05.364Z,7.40
2019-04-10T20:28:54.682Z,7.40
2019-04-10T20:31:43.707Z,7.30
2019-04-10T20:34:33.628Z,7.30
2019-04-10T20:37:22.918Z,7.30
2019-04-10T20:40:11.915Z,7.30
2019-04-10T20:42:59.891Z,7.20
2019-04-10T20:45:48.238Z,7.10
2019-04-10T20:48:36.278Z,7.00
2019-04-10T20:51:24.978Z,7.00
2019-04-10T20:54:14.756Z,7.10
2019-04-10T20:57:04.686Z,7.10
2019-04-10T20:59:53.242Z,7.00
2019-04-10T21:02:42.647Z,7.00
2019-04-10T21:05:31.673Z,7.00
2019-04-10T21:08:20.031Z,6.90
2019-04-10T21:11:08.231Z,6.90
2019-04-10T21:13:56.612Z,6.80
2019-04-10T21:16:44.879Z,6.80
2019-04-10T21:19:33.442Z,6.80
2019-04-10T21:22:22.411Z,6.80
2019-04-10T21:25:11.043Z,6.80
2019-04-10T21:28:00.318Z,6.70
2019-04-10T21:31:25.750Z,6.70
2019-04-10T21:34:21.833Z,6.70
2019-04-10T21:37:10.264Z,6.60
2019-04-10T21:39:58.614Z,6.60
2019-04-10T21:42:47.611Z,6.60
2019-04-10T21:45:35.931Z,6.60
2019-04-10T21:48:24.581Z,6.60
2019-04-10T21:51:12.972Z,6.50
2019-04-10T21:54:02.127Z,6.50
2019-04-10T21:56:51.398Z,6.50
2019-04-10T21:59:39.784Z,6.40
2019-04-10T22:02:28.041Z,6.40
2019-04-10T22:05:16.477Z,6.40
2019-04-10T22:08:21.904Z,6.40
2019-04-10T22:11:09.679Z,6.30
2019-04-10T22:13:58.143Z,6.30
2019-04-10T22:16:46.455Z,6.20
2019-04-10T22:19:36.472Z,6.20
2019-04-10T22:22:24.518Z,6.10
2019-04-10T22:25:13.126Z,6.00
2019-04-10T22:28:01.391Z,6.00
2019-04-10T22:30:50.638Z,6.00
2019-04-10T22:33:39.170Z,5.90
2019-04-10T22:36:27.122Z,5.90
2019-04-10T22:39:16.818Z,5.80
2019-04-10T22:42:05.563Z,5.70
2019-04-10T22:44:53.946Z,5.70
2019-04-10T22:47:43.486Z,5.70
2019-04-10T22:50:32.223Z,5.60
2019-04-10T22:53:21.278Z,5.50
2019-04-10T22:56:10.883Z,5.40
2019-04-10T22:58:59.679Z,5.50
2019-04-10T23:01:59.308Z,5.50
2019-04-10T23:04:39.127Z,5.40
2019-04-10T23:07:28.133Z,5.40
2019-04-10T23:10:17.087Z,5.30
2019-04-10T23:13:07.044Z,5.30
2019-04-10T23:15:55.658Z,5.30
2019-04-10T23:18:44.302Z,5.20
2019-04-10T23:21:32.679Z,5.30
2019-04-10T23:24:21.267Z,5.20
2019-04-10T23:27:09.731Z,5.20
2019-04-10T23:29:58.078Z,5.20
2019-04-10T23:32:47.842Z,5.10
2019-04-10T23:35:36.470Z,5.10
2019-04-10T23:38:25.710Z,5.00
2019-04-10T23:41:13.951Z,4.90
2019-04-10T23:44:02.377Z,4.90
2019-04-10T23:46:51.694Z,4.90
2019-04-10T23:49:39.965Z,5.00
2019-04-10T23:52:27.726Z,4.90
2019-04-10T23:55:15.790Z,4.90
2019-04-10T23:58:05.445Z,4.80
